Time;durP1;ratioP1;P1;durP2;ratioP2;P2;SDS_P1;SDS_P2;PMS_P1;PMS_P2;Temp;Humidity;BMP_temperature;BMP_pressure;BME280_temperature;BME280_humidity;BME280_pressure;Samples;Min_cycle;Max_cycle;Signal;HPM_P1;HPM_P2
2021/12/04 00:01:26;;;;;;;5.07;3.40;;;;;;;1.94;100.00;99391.81;1782859;80;21011;-74
2021/12/04 00:03:53;;;;;;;3.50;3.20;;;;;;;1.88;100.00;99394.52;1782393;79;21462;-73
2021/12/04 00:06:28;;;;;;;3.60;3.23;;;;;;;1.85;100.00;99400.60;1782116;80;21059;-74
2021/12/04 00:09:04;;;;;;;3.87;3.20;;;;;;;1.81;100.00;99408.02;1781901;80;21029;-74
2021/12/04 00:11:27;;;;;;;5.73;3.80;;;;;;;1.77;100.00;99401.73;1780497;80;20999;-73
2021/12/04 00:13:54;;;;;;;5.60;3.70;;;;;;;1.72;100.00;99404.81;1782741;80;21034;-74
2021/12/04 00:16:21;;;;;;;5.33;3.60;;;;;;;1.68;100.00;99413.55;1782357;80;21019;-73
2021/12/04 00:18:47;;;;;;;6.43;4.47;;;;;;;1.66;100.00;99414.14;1782505;80;20999;-74
2021/12/04 00:21:14;;;;;;;9.23;4.70;;;;;;;1.63;100.00;99413.09;1782631;80;20967;-73
2021/12/04 00:23:40;;;;;;;11.07;4.90;;;;;;;1.61;100.00;99418.17;1782437;80;21540;-74
2021/12/04 00:26:07;;;;;;;11.80;5.37;;;;;;;1.59;100.00;99412.13;1782666;80;20999;-73
2021/12/04 00:28:34;;;;;;;10.23;5.30;;;;;;;1.57;100.00;99414.09;1782396;80;21031;-74
2021/12/04 00:31:07;;;;;;;10.03;5.67;;;;;;;1.53;100.00;99416.16;1782376;79;20999;-74
2021/12/04 00:33:31;;;;;;;12.40;5.83;;;;;;;1.50;100.00;99419.08;1775443;80;21026;-73
2021/12/04 00:36:01;;;;;;;14.73;6.77;;;;;;;1.46;100.00;99420.31;1771068;80;20990;-74
2021/12/04 00:49:16;;;;;;;19.10;9.53;;;;;;;1.40;100.00;99468.77;1563243;92;21096;-74
2021/12/04 00:51:46;;;;;;;16.67;8.37;;;;;;;1.39;100.00;99469.27;1562941;90;21082;-73
2021/12/04 00:54:13;;;;;;;19.13;9.20;;;;;;;1.39;100.00;99459.94;1562976;92;21100;-73
2021/12/04 00:56:41;;;;;;;21.40;10.80;;;;;;;1.41;100.00;99465.14;1562961;92;21106;-72
2021/12/04 00:59:08;;;;;;;21.10;10.90;;;;;;;1.41;100.00;99466.47;1562792;91;21588;-73
2021/12/04 01:01:39;;;;;;;22.23;10.50;;;;;;;1.39;100.00;99465.27;1562737;90;21745;-73
2021/12/04 01:04:12;;;;;;;19.63;9.63;;;;;;;1.41;100.00;99463.81;1562823;92;21070;-73
2021/12/04 01:06:39;;;;;;;17.83;8.77;;;;;;;1.42;100.00;99469.02;1534526;94;21622;-74
2021/12/04 01:09:07;;;;;;;19.50;9.73;;;;;;;1.43;100.00;99473.35;1534318;94;21097;-73
2021/12/04 01:11:35;;;;;;;24.03;12.90;;;;;;;1.46;100.00;99465.12;1534384;94;21072;-74
2021/12/04 01:14:02;;;;;;;30.43;17.37;;;;;;;1.46;100.00;99462.45;1534488;94;21083;-74
2021/12/04 01:16:28;;;;;;;28.40;15.97;;;;;;;1.43;100.00;99461.36;1546785;90;21575;-72
2021/12/04 01:18:55;;;;;;;28.23;14.63;;;;;;;1.41;100.00;99476.63;1583965;91;21585;-75
2021/12/04 01:21:22;;;;;;;25.47;13.50;;;;;;;1.40;100.00;99489.61;1582719;91;21013;-74
2021/12/04 01:23:48;;;;;;;27.50;15.50;;;;;;;1.39;100.00;99491.91;1606561;88;21041;-72
2021/12/04 01:26:15;;;;;;;25.97;14.33;;;;;;;1.41;100.00;99490.45;1627643;88;21054;-74
2021/12/04 01:28:42;;;;;;;25.03;14.10;;;;;;;1.42;100.00;99504.14;1633001;88;21499;-74
2021/12/04 01:31:08;;;;;;;25.73;13.57;;;;;;;1.41;100.00;99495.78;1633154;88;21058;-73
2021/12/04 01:33:35;;;;;;;27.17;13.23;;;;;;;1.41;100.00;99481.97;1638287;87;20970;-75
2021/12/04 01:36:02;;;;;;;27.53;15.10;;;;;;;1.41;100.00;99473.97;1643529;87;21029;-74
2021/12/04 01:38:29;;;;;;;40.50;22.93;;;;;;;1.43;100.00;99469.85;1643635;87;21049;-74
2021/12/04 01:40:56;;;;;;;37.60;21.97;;;;;;;1.45;100.00;99467.44;1643532;87;21037;-73
2021/12/04 01:43:24;;;;;;;39.23;23.40;;;;;;;1.46;100.00;99485.09;1643592;86;21064;-73
2021/12/04 01:45:54;;;;;;;35.03;20.30;;;;;;;1.47;100.00;99496.13;1643334;87;21661;-74
2021/12/04 01:48:21;;;;;;;30.47;16.97;;;;;;;1.47;100.00;99475.27;1643411;87;21507;-74
2021/12/04 01:50:47;;;;;;;30.83;17.33;;;;;;;1.45;100.00;99472.77;1643483;87;21034;-74
2021/12/04 01:53:14;;;;;;;32.27;18.83;;;;;;;1.46;100.00;99474.44;1620404;87;21044;-73
2021/12/04 01:55:41;;;;;;;32.40;17.47;;;;;;;1.44;100.00;99467.06;1643558;87;21041;-73
2021/12/04 01:58:07;;;;;;;30.20;16.57;;;;;;;1.43;100.00;99465.86;1643523;87;21037;-73
2021/12/04 02:00:39;;;;;;;24.77;13.00;;;;;;;1.39;100.00;99478.59;1648439;86;21533;-73
2021/12/04 02:03:08;;;;;;;28.47;13.10;;;;;;;1.38;100.00;99493.36;1704380;80;21033;-73
2021/12/04 02:08:11;;;;;;;30.17;17.00;;;;;;;1.39;100.00;99512.38;1717697;83;21033;-74
2021/12/04 02:10:38;;;;;;;35.87;20.73;;;;;;;1.40;100.00;99523.38;1676038;86;21530;-73
2021/12/04 02:13:05;;;;;;;37.30;20.43;;;;;;;1.41;100.00;99529.08;1675850;82;21039;-73
2021/12/04 02:15:33;;;;;;;33.60;17.70;;;;;;;1.40;100.00;99537.56;1675819;86;21137;-73
2021/12/04 02:18:02;;;;;;;40.77;19.33;;;;;;;1.40;100.00;99541.56;1675950;86;21035;-72
2021/12/04 02:20:29;;;;;;;36.20;20.50;;;;;;;1.42;100.00;99532.95;1659675;86;21537;-74
2021/12/04 02:22:56;;;;;;;32.83;18.47;;;;;;;1.45;100.00;99543.37;1648744;87;21037;-73
2021/12/04 02:25:23;;;;;;;22.20;12.33;;;;;;;1.47;100.00;99559.20;1648523;87;21074;-74
2021/12/04 02:27:50;;;;;;;15.33;8.77;;;;;;;1.47;100.00;99565.87;1648692;87;21528;-74
2021/12/04 02:30:23;;;;;;;13.93;7.77;;;;;;;1.43;100.00;99574.59;1648818;87;21085;-74
2021/12/04 02:32:50;;;;;;;15.13;8.47;;;;;;;1.39;100.00;99575.83;1654487;86;21015;-74
2021/12/04 02:35:17;;;;;;;10.10;6.73;;;;;;;1.37;100.00;99580.92;1676058;86;21023;-73
2021/12/04 02:37:45;;;;;;;11.53;6.50;;;;;;;1.34;100.00;99591.33;1675783;86;21043;-73
2021/12/04 02:40:16;;;;;;;11.00;6.80;;;;;;;1.33;100.00;99563.02;1676044;86;21121;-75
2021/12/04 02:42:44;;;;;;;10.73;6.50;;;;;;;1.32;100.00;99578.62;1676087;86;21628;-73
2021/12/04 02:45:12;;;;;;;9.43;6.20;;;;;;;1.32;100.00;99597.27;1675989;86;21051;-74
2021/12/04 02:47:39;;;;;;;9.60;6.73;;;;;;;1.34;100.00;99600.66;1676072;86;21078;-73
2021/12/04 02:50:07;;;;;;;11.20;7.00;;;;;;;1.37;100.00;99602.24;1675919;86;21063;-74
2021/12/04 02:52:36;;;;;;;10.33;7.03;;;;;;;1.36;100.00;99607.19;1675980;86;21091;-74
2021/12/04 02:55:04;;;;;;;9.83;6.10;;;;;;;1.35;100.00;99622.80;1675778;86;21406;-73
2021/12/04 02:57:34;;;;;;;9.60;6.30;;;;;;;1.35;100.00;99624.13;1676101;86;21067;-74
2021/12/04 03:00:00;;;;;;;9.30;6.43;;;;;;;1.37;100.00;99636.38;1675677;85;21016;-74
2021/12/04 03:02:27;;;;;;;9.60;6.50;;;;;;;1.37;100.00;99636.88;1667818;86;21007;-74
2021/12/04 03:04:59;;;;;;;11.27;7.17;;;;;;;1.36;100.00;99636.50;1690978;84;21099;-73
2021/12/04 03:07:26;;;;;;;11.78;7.30;;;;;;;1.37;100.00;99647.53;1754459;80;21456;-73
2021/12/04 03:09:53;;;;;;;8.40;6.10;;;;;;;1.37;100.00;99642.20;1788044;80;21594;-73
2021/12/04 03:12:23;;;;;;;10.00;6.73;;;;;;;1.35;100.00;99642.78;1787843;80;21013;-73
2021/12/04 03:14:51;;;;;;;10.83;6.87;;;;;;;1.33;100.00;99645.59;1788020;80;21449;-73
2021/12/04 03:17:20;;;;;;;9.43;6.27;;;;;;;1.32;100.00;99646.55;1788098;80;21021;-73
2021/12/04 03:19:46;;;;;;;10.50;6.60;;;;;;;1.32;100.00;99647.39;1788026;80;21494;-73
2021/12/04 03:22:14;;;;;;;10.93;6.30;;;;;;;1.33;100.00;99638.94;1788181;80;20975;-74
2021/12/04 03:24:43;;;;;;;8.67;6.07;;;;;;;1.37;100.00;99643.04;1787737;80;21610;-75
2021/12/04 03:27:11;;;;;;;10.03;6.50;;;;;;;1.39;100.00;99649.09;1787954;80;21019;-74
2021/12/04 03:29:43;;;;;;;11.30;6.80;;;;;;;1.41;100.00;99642.31;1787878;80;20995;-73
2021/12/04 03:42:55;;;;;;;10.63;6.97;;;;;;;1.45;100.00;99637.09;1788126;80;20988;-73
2021/12/04 03:45:22;;;;;;;9.97;7.00;;;;;;;1.45;100.00;99646.41;1748628;82;20999;-74
2021/12/04 03:47:52;;;;;;;9.80;6.80;;;;;;;1.43;100.00;99647.86;1787927;79;21030;-74
2021/12/04 03:50:18;;;;;;;9.70;7.10;;;;;;;1.41;100.00;99632.98;1748351;82;21030;-73
2021/12/04 03:52:45;;;;;;;8.57;6.40;;;;;;;1.35;100.00;99632.12;1788304;80;21057;-75
2021/12/04 03:55:11;;;;;;;9.83;6.60;;;;;;;1.30;100.00;99632.02;1788121;80;21489;-74
2021/12/04 03:57:45;;;;;;;11.20;6.57;;;;;;;1.28;100.00;99633.13;1787991;80;20991;-75
2021/12/04 04:00:14;;;;;;;10.05;6.85;;;;;;;1.24;100.00;99647.62;1748609;82;21005;-74
2021/12/04 04:02:41;;;;;;;9.80;7.00;;;;;;;1.21;100.00;99639.41;1741699;82;21006;-72
2021/12/04 04:05:08;;;;;;;9.83;6.73;;;;;;;1.20;100.00;99637.70;1741745;82;21030;-74
2021/12/04 04:07:35;;;;;;;10.50;6.70;;;;;;;1.19;100.00;99633.36;1741444;82;21019;-74
2021/12/04 04:10:06;;;;;;;10.53;7.20;;;;;;;1.19;100.00;99628.50;1741039;82;21099;-73
2021/12/04 04:12:33;;;;;;;11.40;7.80;;;;;;;1.20;100.00;99632.88;1741159;82;21106;-73
2021/12/04 04:14:59;;;;;;;12.03;7.90;;;;;;;1.20;100.00;99635.04;1741602;82;20999;-74
2021/12/04 04:17:30;;;;;;;14.13;8.57;;;;;;;1.20;100.00;99633.70;1741230;82;21030;-74
2021/12/04 04:19:55;;;;;;;14.57;8.40;;;;;;;1.20;100.00;99635.53;1737730;82;21072;-74
2021/12/04 04:22:22;;;;;;;13.83;8.70;;;;;;;1.19;100.00;99628.03;1741341;82;21070;-74
2021/12/04 04:24:49;;;;;;;15.40;9.00;;;;;;;1.16;100.00;99633.59;1716898;81;21110;-75
2021/12/04 04:27:15;;;;;;;15.90;9.73;;;;;;;1.14;100.00;99634.20;1741483;82;21010;-74
2021/12/04 04:29:42;;;;;;;13.87;8.63;;;;;;;1.12;100.00;99632.98;1741585;82;21080;-75
2021/12/04 04:32:09;;;;;;;12.70;8.30;;;;;;;1.10;100.00;99642.92;1741261;82;21506;-74
2021/12/04 04:34:38;;;;;;;12.60;8.63;;;;;;;1.10;100.00;99645.58;1727658;82;21015;-74
2021/12/04 05:12:36;;;;;;;32.30;19.80;;;;;;;1.17;100.00;99695.69;1714680;84;21032;-74
2021/12/04 05:14:58;;;;;;;26.13;15.50;;;;;;;1.18;100.00;99699.56;1711150;84;21105;-73
2021/12/04 05:20:14;;;;;;;29.23;17.90;;;;;;;1.13;100.00;99699.08;1765156;80;21007;-74
2021/12/04 05:22:39;;;;;;;33.13;20.10;;;;;;;1.10;100.00;99712.16;1781389;80;21011;-74
2021/12/04 05:25:08;;;;;;;29.80;18.47;;;;;;;1.08;100.00;99718.09;1781335;80;21542;-73
2021/12/04 05:27:35;;;;;;;32.50;19.93;;;;;;;1.09;100.00;99730.91;1781248;80;21031;-74
2021/12/04 05:30:03;;;;;;;37.90;23.03;;;;;;;1.08;100.00;99728.74;1781569;80;20990;-72
2021/12/04 05:32:31;;;;;;;26.77;16.13;;;;;;;1.08;100.00;99739.39;1781959;80;21000;-73
2021/12/04 05:34:58;;;;;;;28.93;17.27;;;;;;;1.09;100.00;99737.57;1782389;80;21465;-75
2021/12/04 05:37:25;;;;;;;29.93;17.80;;;;;;;1.07;100.00;99747.00;1782510;80;21018;-74
2021/12/04 05:39:52;;;;;;;32.40;19.93;;;;;;;1.07;100.00;99745.67;1782455;79;21528;-74
2021/12/04 05:42:18;;;;;;;32.53;21.17;;;;;;;1.07;100.00;99737.69;1781974;80;20983;-74
2021/12/04 05:44:45;;;;;;;28.17;18.17;;;;;;;1.06;100.00;99744.45;1782411;80;20979;-73
2021/12/04 05:47:21;;;;;;;32.53;22.17;;;;;;;1.04;100.00;99737.07;1782084;80;21023;-72
2021/12/04 05:57:35;;;;;;;22.30;13.67;;;;;;;1.00;100.00;99743.61;1782174;80;21038;-75
2021/12/04 06:00:07;;;;;;;24.60;14.03;;;;;;;1.00;100.00;99743.11;1782268;80;21067;-73
2021/12/04 06:02:35;;;;;;;22.90;13.53;;;;;;;0.99;100.00;99734.75;1718456;82;21061;-74
2021/12/04 06:05:02;;;;;;;31.37;16.10;;;;;;;1.00;100.00;99739.12;1715127;84;20990;-73
2021/12/04 06:07:29;;;;;;;40.23;20.90;;;;;;;1.04;100.00;99738.41;1715088;84;21003;-73
2021/12/04 06:09:56;;;;;;;22.37;13.97;;;;;;;1.06;100.00;99735.13;1715141;84;21077;-74
2021/12/04 06:12:22;;;;;;;34.53;23.73;;;;;;;1.08;100.00;99741.19;1715026;84;21046;-73
2021/12/04 06:14:49;;;;;;;28.67;15.40;;;;;;;1.08;100.00;99742.05;1714409;84;20995;-74
2021/12/04 06:25:15;;;;;;;44.43;28.27;;;;;;;1.19;100.00;99747.89;1585029;90;21103;-72
2021/12/04 06:27:43;;;;;;;22.97;14.03;;;;;;;1.21;100.00;99738.45;1501392;96;21095;-72
2021/12/04 06:30:15;;;;;;;22.90;13.77;;;;;;;1.24;100.00;99748.84;1501662;96;21099;-71
2021/12/04 06:32:42;;;;;;;32.67;18.37;;;;;;;1.25;100.00;99747.89;1501506;96;21177;-72
2021/12/04 06:35:10;;;;;;;39.63;23.73;;;;;;;1.26;100.00;99748.27;1501763;96;21082;-72
2021/12/04 06:37:37;;;;;;;34.90;22.97;;;;;;;1.27;100.00;99756.61;1501619;96;21136;-71
2021/12/04 06:40:06;;;;;;;34.03;20.57;;;;;;;1.24;100.00;99755.05;1501666;96;21119;-71
2021/12/04 06:42:33;;;;;;;32.33;19.70;;;;;;;1.24;100.00;99755.05;1501666;96;21163;-71
2021/12/04 06:45:01;;;;;;;25.03;16.23;;;;;;;1.27;100.00;99756.61;1501402;96;21665;-73
2021/12/04 06:47:30;;;;;;;24.57;16.03;;;;;;;1.26;100.00;99757.09;1501704;96;21180;-72
2021/12/04 06:50:04;;;;;;;29.97;18.67;;;;;;;1.26;100.00;99752.27;1500518;96;22157;-73
2021/12/04 06:52:28;;;;;;;31.33;19.73;;;;;;;1.27;100.00;99762.77;1498270;96;21152;-71
2021/12/04 06:54:57;;;;;;;40.23;24.40;;;;;;;1.27;100.00;99771.26;1500201;94;21109;-72
2021/12/04 06:57:23;;;;;;;34.23;20.57;;;;;;;1.30;100.00;99776.36;1500372;96;21198;-73
2021/12/04 06:59:53;;;;;;;51.13;32.03;;;;;;;1.32;100.00;99775.26;1517433;94;21049;-71
2021/12/04 07:02:20;;;;;;;46.30;31.53;;;;;;;1.37;100.00;99782.91;1525958;94;21114;-71
2021/12/04 07:04:47;;;;;;;40.37;26.60;;;;;;;1.43;100.00;99777.58;1526852;94;21187;-70
2021/12/04 07:07:13;;;;;;;29.30;18.37;;;;;;;1.46;100.00;99781.34;1527752;94;21145;-70
2021/12/04 07:09:41;;;;;;;32.67;22.67;;;;;;;1.48;100.00;99784.73;1527559;94;21621;-71
2021/12/04 07:12:09;;;;;;;29.57;18.50;;;;;;;1.50;100.00;99785.46;1527635;94;21143;-71
2021/12/04 07:14:35;;;;;;;28.63;18.60;;;;;;;1.49;100.00;99791.78;1527567;94;21143;-70
2021/12/04 07:17:04;;;;;;;23.50;15.10;;;;;;;1.47;100.00;99793.22;1549187;92;21147;-70
2021/12/04 07:19:31;;;;;;;73.33;37.33;;;;;;;1.47;100.00;99789.23;1559773;92;21072;-71
2021/12/04 07:21:58;;;;;;;71.30;38.07;;;;;;;1.47;100.00;99790.56;1626734;88;21053;-71
2021/12/04 07:24:26;;;;;;;35.00;21.03;;;;;;;1.49;100.00;99787.78;1701022;81;21045;-70
2021/12/04 07:26:53;;;;;;;26.93;18.70;;;;;;;1.50;100.00;99790.79;1764375;81;21069;-71
2021/12/04 07:29:20;;;;;;;22.83;15.57;;;;;;;1.51;100.00;99789.34;1764485;81;21002;-70
2021/12/04 07:31:47;;;;;;;24.20;16.53;;;;;;;1.53;100.00;99792.39;1764539;81;20962;-70
2021/12/04 07:34:14;;;;;;;28.87;19.90;;;;;;;1.56;100.00;99792.12;1788818;80;21441;-71
2021/12/04 07:36:41;;;;;;;20.80;14.13;;;;;;;1.58;100.00;99787.05;1795542;80;21022;-72
2021/12/04 07:39:08;;;;;;;28.77;22.73;;;;;;;1.59;100.00;99789.23;1794922;80;21511;-69
2021/12/04 07:41:38;;;;;;;23.03;15.87;;;;;;;1.61;100.00;99793.48;1794994;78;21010;-72
2021/12/04 07:44:03;;;;;;;26.37;18.33;;;;;;;1.63;100.00;99788.88;1795276;79;21034;-73
2021/12/04 07:46:30;;;;;;;26.03;16.90;;;;;;;1.69;100.00;99788.39;1795583;80;20955;-71
2021/12/04 07:48:57;;;;;;;27.70;19.37;;;;;;;1.75;100.00;99786.21;1795110;80;21058;-71
2021/12/04 07:51:23;;;;;;;19.37;10.20;;;;;;;1.79;100.00;99787.66;1795781;80;21014;-73
2021/12/04 07:53:50;;;;;;;21.37;12.20;;;;;;;1.79;100.00;99787.20;1795492;80;21472;-70
2021/12/04 07:56:17;;;;;;;26.33;16.60;;;;;;;1.79;100.00;99791.19;1794640;80;21022;-71
2021/12/04 07:58:45;;;;;;;32.07;20.53;;;;;;;1.77;100.00;99799.80;1794608;80;21042;-72
2021/12/04 08:01:12;;;;;;;27.80;17.77;;;;;;;1.82;100.00;99794.09;1794753;80;21069;-71
2021/12/04 08:03:39;;;;;;;22.20;13.33;;;;;;;1.86;100.00;99792.41;1795579;79;21048;-72
2021/12/04 08:06:06;;;;;;;15.83;9.37;;;;;;;1.90;100.00;99793.01;1795636;80;21026;-71
2021/12/04 08:08:33;;;;;;;18.63;9.50;;;;;;;1.94;100.00;99788.28;1794706;80;21026;-72
2021/12/04 08:11:00;;;;;;;22.23;13.07;;;;;;;1.96;100.00;99783.66;1760426;81;21531;-71
2021/12/04 08:13:28;;;;;;;26.33;15.97;;;;;;;1.95;100.00;99780.63;1746699;82;21063;-72
2021/12/04 08:15:56;;;;;;;35.33;21.20;;;;;;;1.96;100.00;99785.84;1746379;82;21071;-72
2021/12/04 08:18:23;;;;;;;32.23;18.80;;;;;;;1.98;100.00;99779.05;1757922;81;21049;-72
2021/12/04 08:20:50;;;;;;;26.53;15.47;;;;;;;1.95;100.00;99780.16;1758074;81;20995;-72
2021/12/04 08:23:17;;;;;;;26.00;15.87;;;;;;;1.93;100.00;99774.56;1758112;82;21014;-72
2021/12/04 08:25:46;;;;;;;25.67;15.17;;;;;;;1.95;100.00;99770.83;1757885;82;21102;-72
2021/12/04 08:28:13;;;;;;;22.17;14.13;;;;;;;1.98;100.00;99768.39;1758019;82;21026;-71
2021/12/04 08:30:40;;;;;;;30.57;19.10;;;;;;;2.00;100.00;99761.98;1758156;82;21034;-72
2021/12/04 08:33:09;;;;;;;27.13;16.17;;;;;;;2.06;100.00;99765.97;1754892;82;21513;-72
2021/12/04 08:35:40;;;;;;;26.83;15.87;;;;;;;2.11;100.00;99770.91;1748104;82;21002;-73
2021/12/04 08:38:11;;;;;;;23.90;13.17;;;;;;;2.14;100.00;99762.67;1747973;82;21055;-72
2021/12/04 08:40:39;;;;;;;121.40;55.83;;;;;;;2.13;100.00;99756.49;1748125;82;21010;-71
2021/12/04 08:43:06;;;;;;;38.47;23.77;;;;;;;2.13;100.00;99755.66;1747920;82;21465;-71
2021/12/04 08:45:34;;;;;;;31.13;20.23;;;;;;;2.14;100.00;99754.67;1748035;82;21237;-73
2021/12/04 08:48:00;;;;;;;43.07;27.67;;;;;;;2.17;100.00;99747.76;1747856;82;20994;-71
2021/12/04 08:50:30;;;;;;;29.33;17.77;;;;;;;2.20;100.00;99744.36;1747812;82;21037;-71
2021/12/04 08:52:58;;;;;;;26.37;15.80;;;;;;;2.21;100.00;99741.19;1747332;82;21029;-71
2021/12/04 08:55:25;;;;;;;27.43;15.80;;;;;;;2.19;100.00;99741.31;1748007;82;20982;-71
2021/12/04 08:57:52;;;;;;;31.47;18.20;;;;;;;2.21;100.00;99739.39;1747849;82;21492;-73
2021/12/04 09:00:26;;;;;;;25.13;13.87;;;;;;;2.23;100.00;99725.91;1748253;82;21006;-71
2021/12/04 09:02:54;;;;;;;32.20;18.77;;;;;;;2.25;100.00;99722.16;1679598;84;21217;-71
2021/12/04 09:05:23;;;;;;;40.53;21.37;;;;;;;2.26;100.00;99719.83;1661295;86;21045;-70
2021/12/04 09:07:53;;;;;;;49.13;22.13;;;;;;;2.28;100.00;99719.70;1640472;87;21118;-71
2021/12/04 09:10:21;;;;;;;38.07;20.77;;;;;;;2.26;100.00;99714.49;1640517;87;21105;-71
2021/12/04 09:12:48;;;;;;;30.90;17.53;;;;;;;2.27;100.00;99720.70;1640574;87;21065;-70
2021/12/04 09:15:20;;;;;;;31.87;18.83;;;;;;;2.26;100.00;99714.98;1640770;87;21065;-70
2021/12/04 09:17:47;;;;;;;35.40;20.30;;;;;;;2.24;100.00;99718.27;1640740;87;21041;-71
2021/12/04 09:20:16;;;;;;;40.07;20.80;;;;;;;2.19;100.00;99714.63;1642216;87;21105;-72
2021/12/04 09:22:45;;;;;;;33.90;19.40;;;;;;;2.19;100.00;99717.80;1643670;87;21571;-71
2021/12/04 09:25:16;;;;;;;29.87;19.00;;;;;;;2.22;100.00;99717.06;1642903;87;21077;-70
2021/12/04 09:27:58;;;;;;;36.87;22.77;;;;;;;2.24;100.00;99716.44;1642035;87;21260;-72
2021/12/04 10:00:14;;;;;;;33.93;19.60;;;;;;;2.39;100.00;99715.69;1560093;92;21120;-71
2021/12/04 10:02:44;;;;;;;24.57;13.22;;;;;;;2.31;100.00;99716.80;1594750;88;21086;-71
2021/12/04 10:18:57;;;;;;;35.17;24.83;;;;;;;2.27;100.00;99708.20;1652866;87;21077;-71
2021/12/04 10:34:37;;;;;;;50.37;27.43;;;;;;;2.18;100.00;99682.74;1564188;90;21087;-70
2021/12/04 10:37:09;;;;;;;54.87;35.17;;;;;;;2.17;100.00;99676.57;1563046;92;21106;-69
2021/12/04 10:39:36;;;;;;;36.67;22.60;;;;;;;2.17;100.00;99675.23;1570567;91;21118;-71
2021/12/04 10:42:12;;;;;;;30.23;18.13;;;;;;;2.17;100.00;99670.40;1570713;91;21602;-69
2021/12/04 10:44:34;;;;;;;19.30;10.10;;;;;;;2.19;100.00;99672.45;1567947;90;21104;-71
2021/12/04 10:47:10;;;;;;;25.27;15.40;;;;;;;2.18;100.00;99673.41;1565362;91;21088;-71
2021/12/04 10:55:34;;;;;;;24.87;15.17;;;;;;;2.13;100.00;99665.80;1542579;89;21091;-72
2021/12/04 11:04:06;;;;;;;36.83;21.67;;;;;;;2.17;100.00;99657.90;1477774;96;21171;-75
2021/12/04 11:07:14;;;;;;;29.53;18.20;;;;;;;2.17;100.00;99652.56;1472289;97;21207;-75
2021/12/04 11:24:02;;;;;;;92.73;42.73;;;;;;;2.01;100.00;99650.80;1518941;94;21115;-73
2021/12/04 11:42:58;;;;;;;32.20;18.87;;;;;;;1.99;100.00;99644.27;1557105;92;21074;-73
2021/12/04 11:45:28;;;;;;;22.42;12.88;;;;;;;1.97;100.00;99643.55;1538698;92;21102;-70
2021/12/04 11:47:57;;;;;;;26.70;15.72;;;;;;;1.94;100.00;99639.79;1554650;92;21108;-75
2021/12/04 11:50:31;;;;;;;52.83;36.33;;;;;;;1.93;100.00;99642.58;1554358;92;21177;-75
2021/12/04 11:53:02;;;;;;;63.87;39.67;;;;;;;1.88;100.00;99641.14;1554453;92;21611;-73
2021/12/04 11:55:33;;;;;;;57.73;37.53;;;;;;;1.85;100.00;99639.22;1503054;94;21156;-73
2021/12/04 11:58:00;;;;;;;29.37;18.03;;;;;;;1.84;100.00;99642.84;1530060;94;21073;-73
2021/12/04 12:00:34;;;;;;;49.57;29.90;;;;;;;1.83;100.00;99635.34;1530058;94;21582;-74
2021/12/04 12:03:15;;;;;;;64.67;41.73;;;;;;;1.81;100.00;99638.62;1529921;94;21098;-73
2021/12/04 12:06:03;;;;;;;40.57;25.30;;;;;;;1.77;100.00;99641.19;1526176;94;21388;-73
2021/12/04 12:08:33;;;;;;;44.67;26.60;;;;;;;1.74;100.00;99641.92;1530319;94;21058;-74
2021/12/04 12:11:08;;;;;;;38.77;23.50;;;;;;;1.72;100.00;99655.37;1530272;94;21094;-73
2021/12/04 12:13:37;;;;;;;;;;;;;;;1.70;100.00;99655.98;1532370;94;21153;-74
2021/12/04 12:16:22;;;;;;;45.13;29.53;;;;;;;1.70;100.00;99662.64;1530383;94;20174;-73
2021/12/04 12:19:01;;;;;;;30.63;18.97;;;;;;;1.69;100.00;99659.11;1530317;94;21147;-75
2021/12/04 12:22:06;;;;;;;35.93;20.47;;;;;;;1.71;100.00;99667.83;1505103;95;21102;-69
2021/12/04 12:33:07;;;;;;;44.37;19.77;;;;;;;1.76;100.00;99659.96;1538489;92;21600;-71
2021/12/04 12:38:47;;;;;;;34.03;20.03;;;;;;;1.70;100.00;99641.32;1540702;89;21116;-71
2021/12/04 12:41:42;;;;;;;84.00;52.73;;;;;;;1.69;100.00;99643.61;1539981;93;21171;-70
2021/12/04 12:44:25;;;;;;;46.43;32.87;;;;;;;1.65;100.00;99644.34;1553595;90;21564;-73
2021/12/04 12:46:59;;;;;;;23.15;13.08;;;;;;;1.65;100.00;99623.52;1564752;92;21151;-71
2021/12/04 12:49:37;;;;;;;35.97;23.80;;;;;;;1.64;100.00;99627.14;1536505;93;21062;-71
2021/12/04 12:52:18;;;;;;;30.73;19.53;;;;;;;1.59;100.00;99628.83;1528704;93;21159;-70
2021/12/04 12:55:02;;;;;;;54.43;34.43;;;;;;;1.56;100.00;99634.43;1511921;95;21180;-72
2021/12/04 12:57:31;;;;;;;38.43;20.63;;;;;;;1.54;100.00;99637.70;1516345;95;21087;-71
2021/12/04 13:11:43;;;;;;;43.30;26.00;;;;;;;1.48;100.00;99648.34;1577271;91;21066;-71
2021/12/04 13:14:25;;;;;;;26.83;14.80;;;;;;;1.45;100.00;99645.08;1559319;91;21616;-71
2021/12/04 13:17:06;;;;;;;20.00;10.63;;;;;;;1.44;100.00;99656.23;1526516;94;21077;-71
2021/12/04 13:19:36;;;;;;;24.20;10.93;;;;;;;1.43;100.00;99654.52;1555978;92;21028;-71
2021/12/04 13:22:29;;;;;;;28.47;15.57;;;;;;;1.40;100.00;99657.92;1563290;91;21587;-70
2021/12/04 13:24:58;;;;;;;37.17;23.90;;;;;;;1.37;100.00;99655.52;1422928;101;21211;-70
2021/12/04 13:29:57;;;;;;;26.63;15.10;;;;;;;1.41;100.00;99663.13;1482230;97;21570;-73
2021/12/04 13:32:35;;;;;;;31.65;19.10;;;;;;;1.45;100.00;99663.73;1498531;95;21082;-74
2021/12/04 13:35:14;;;;;;;25.77;12.73;;;;;;;1.47;100.00;99665.33;1512582;94;21119;-74
2021/12/04 13:37:41;;;;;;;24.57;12.13;;;;;;;1.51;100.00;99669.92;1479973;94;21103;-74
2021/12/04 13:40:14;;;;;;;20.13;10.93;;;;;;;1.50;100.00;99670.88;1464402;97;21235;-73
2021/12/04 13:42:42;;;;;;;33.10;15.63;;;;;;;1.47;100.00;99666.66;1465434;96;21083;-73
2021/12/04 13:45:12;;;;;;;31.00;14.57;;;;;;;1.43;100.00;99667.84;1518732;93;21117;-73
2021/12/04 13:47:38;;;;;;;32.20;18.20;;;;;;;1.38;100.00;99657.20;1515571;93;21033;-76
2021/12/04 13:53:02;;;;;;;31.93;18.97;;;;;;;1.38;100.00;99656.73;1510144;95;21137;-74
2021/12/04 13:55:30;;;;;;;34.37;19.43;;;;;;;1.40;100.00;99654.80;1474170;97;21230;-75
2021/12/04 13:57:57;;;;;;;35.20;18.17;;;;;;;1.42;100.00;99658.67;1460515;98;21148;-75
2021/12/04 14:00:24;;;;;;;31.67;19.43;;;;;;;1.42;100.00;99653.34;1439802;100;21127;-75
2021/12/04 14:02:51;;;;;;;27.73;14.70;;;;;;;1.41;100.00;99650.30;1474445;97;21141;-74
2021/12/04 14:05:21;;;;;;;24.83;13.53;;;;;;;1.39;100.00;99653.08;1457789;96;21101;-75
2021/12/04 14:07:57;;;;;;;23.40;11.80;;;;;;;1.38;100.00;99646.54;1435379;99;21207;-73
2021/12/04 14:10:30;;;;;;;26.53;13.67;;;;;;;1.35;100.00;99646.78;1455648;97;21221;-75
2021/12/04 14:12:59;;;;;;;22.47;13.17;;;;;;;1.32;100.00;99650.55;1455530;98;21252;-75
2021/12/04 14:15:26;;;;;;;39.33;25.03;;;;;;;1.27;100.00;99646.06;1472235;97;21060;-74
2021/12/04 14:18:07;;;;;;;31.43;21.13;;;;;;;1.22;100.00;99649.11;1440108;98;21103;-74
2021/12/04 14:20:36;;;;;;;25.40;15.13;;;;;;;1.23;100.00;99653.94;1438673;98;21162;-74
2021/12/04 14:23:03;;;;;;;23.60;12.57;;;;;;;1.23;100.00;99656.61;1471911;96;21174;-71
2021/12/04 14:25:30;;;;;;;22.23;12.40;;;;;;;1.23;100.00;99653.45;1480146;97;21205;-74
2021/12/04 14:27:59;;;;;;;20.73;11.60;;;;;;;1.25;100.00;99648.00;1460018;98;21117;-74
2021/12/04 14:30:32;;;;;;;22.87;12.60;;;;;;;1.24;100.00;99648.96;1457683;97;21116;-74
2021/12/04 14:33:02;;;;;;;23.33;11.90;;;;;;;1.24;100.00;99647.16;1489592;95;21094;-75
2021/12/04 14:35:35;;;;;;;22.43;12.67;;;;;;;1.22;100.00;99650.91;1576616;91;21147;-74
2021/12/04 14:38:03;;;;;;;;;;;;;;;1.18;100.00;99642.31;1582068;91;21152;-75
2021/12/04 14:40:44;;;;;;;20.90;11.30;;;;;;;1.18;100.00;99648.13;1579215;91;20204;-75
2021/12/04 14:43:14;;;;;;;25.13;12.30;;;;;;;1.14;100.00;99644.36;1528611;93;21599;-73
2021/12/04 14:45:44;;;;;;;21.83;11.80;;;;;;;1.14;100.00;99644.86;1501508;95;22270;-74
2021/12/04 14:48:18;;;;;;;22.60;12.77;;;;;;;1.08;100.00;99643.98;1524939;94;21234;-74
2021/12/04 14:50:49;;;;;;;21.40;12.30;;;;;;;1.04;100.00;99650.04;1502272;95;21103;-75
2021/12/04 14:53:17;;;;;;;24.30;14.00;;;;;;;1.00;100.00;99650.42;1568715;91;21094;-74
2021/12/04 14:55:47;;;;;;;23.23;13.27;;;;;;;0.99;100.00;99653.54;1573737;91;21088;-74